Jeju International Airport
RKPC : now visible

Airfield :











YOU CAN JOIN US ON...

 
LOGIN :

Register | Disclaimer

   EN    FR    IT 

 









Legend :    VFR   Marginal VFR   IFR   Intensive IFR   Very Intensive IFR
Visi :
Ceiling :
>= 8 km
>= 3000ft
5 to 8 km
1000 to 3000 ft
1500m to 5 km
500 to 1000 ft
800 to 1500m
200 to 500 ft
< 800m
< 200 ft
Symbols :   Thunderstorms  Fog  Heavy snow  Heavy precipitations  Wind > 20 kt







- Airport Elevation : 118 ft
- IATA code : CJU


RKPC - Jeju International

CURRENT METAR :
  • 190000Z 14007KT 9999 FEW010 BKN025 OVC080 09/08 Q1015 NOSIG

EXPIRED METARs :
  • 182300Z 09012KT 9999 -RA SCT010 BKN025 OVC080 09/08 Q1014 BECMG NSW
  • 182200Z 04014KT 6000 -RA SCT007 BKN020 OVC080 09/08 Q1014 NOSIG
  • 182123Z 03018KT 360V060 4000 RA SCT005 BKN020 OVC080 09/08 Q1014 NOSIG

TAF TAF RKPC
Valid from the 19 at 00:00 until the 20 at 06:00 UTC


182300Z 1900/2006 02015G25KT 9999 FEW010 BKN030 OVC100 TX14/1906Z TN06/1921Z TX08/2004Z
TEMPO 1900/1901 -RA
BECMG 1902/1903 33008KT
BECMG 1918/1919 SCT030 BKN150
RKRR FIR / Asia



MET'MAP, your aeronautical weather chart ! - Copyright ORBIFLY December 2007 - Disclaimer

ORBIFLY MET'MAP TEAM :

Programming & Development : Alexandra Zaïnal
Concept & Development : Baudouin d'Aumeries
Co-Development & Prog : Marc-Olivier Méhu
Technical & hardware support : Manuel Goepfert

Contact : metmap@orbifly.com




SOURCES & CREDITS :

   NOAA       Earth
Advisory